Decoded Metar for LZKZ (KOSICE in SLOVAKIA) (IATA:KSC) | Meteo·Mobile Aviation Weather
aviador You're here:

LZKZ Decoded Metar

KOSICE in SLOVAKIA
Report Time2019-01-17 23:30:00
UTC Time2019-01-17 23:44:06
Flight Rules lifr LIFR
WindVRB at 01 kt
Visibility1500 m
Phenomena:Mist
Clouds:Scattered 005 Hf
Broken 035 Hf
Ceiling3,500 ft
Temp-1°C (ISA -14)
Dew Point-1°C (100% RH)
AAT-3.5°C
QNH1008 hPa
Density Alt-758 ft
Elevation761 ft
Report Wrong Elevation
Raw Report
LZKZ 172330Z VRB01KT 1500 BR SCT005 BKN035 M01/M01 Q1008=

Extra information for LZKZ:More info

Metar Taf Metar & Taf Last 4 Metars F.Rules Stats Wind Profile Meteogram Temp Stats Airport Information Weather charts Add Link Nearby VenuesMetar ALERT Operation Metar Decoded Social comments